sensor_id;sensor_type;location;lat;lon;timestamp;P1;durP1;ratioP1;P2;durP2;ratioP2
9424;SDS011;17139;52.140;11.636;2023-07-20T00:00:06;1.80;;;1.70;;
9424;SDS011;17139;52.140;11.636;2023-07-20T00:02:34;1.40;;;1.30;;
9424;SDS011;17139;52.140;11.636;2023-07-20T00:05:01;1.63;;;1.55;;
9424;SDS011;17139;52.140;11.636;2023-07-20T00:07:28;5.32;;;1.45;;
9424;SDS011;17139;52.140;11.636;2023-07-20T00:09:55;1.60;;;1.10;;
9424;SDS011;17139;52.140;11.636;2023-07-20T00:12:23;4.13;;;1.60;;
9424;SDS011;17139;52.140;11.636;2023-07-20T00:14:50;1.83;;;1.60;;
9424;SDS011;17139;52.140;11.636;2023-07-20T00:17:18;2.97;;;1.83;;
9424;SDS011;17139;52.140;11.636;2023-07-20T00:19:46;2.27;;;1.90;;
9424;SDS011;17139;52.140;11.636;2023-07-20T00:22:13;1.52;;;1.52;;
9424;SDS011;17139;52.140;11.636;2023-07-20T00:24:40;1.63;;;1.52;;
9424;SDS011;17139;52.140;11.636;2023-07-20T00:27:07;2.85;;;1.85;;
9424;SDS011;17139;52.140;11.636;2023-07-20T00:29:35;2.08;;;1.50;;
9424;SDS011;17139;52.140;11.636;2023-07-20T00:32:03;4.40;;;1.63;;
9424;SDS011;17139;52.140;11.636;2023-07-20T00:34:31;1.20;;;1.20;;
9424;SDS011;17139;52.140;11.636;2023-07-20T00:36:58;1.58;;;1.48;;
9424;SDS011;17139;52.140;11.636;2023-07-20T00:39:25;1.20;;;1.20;;
9424;SDS011;17139;52.140;11.636;2023-07-20T00:41:52;1.75;;;1.58;;
9424;SDS011;17139;52.140;11.636;2023-07-20T00:44:19;4.00;;;1.27;;
9424;SDS011;17139;52.140;11.636;2023-07-20T00:46:47;1.73;;;1.63;;
9424;SDS011;17139;52.140;11.636;2023-07-20T00:49:14;1.40;;;1.40;;
9424;SDS011;17139;52.140;11.636;2023-07-20T00:51:46;3.38;;;1.65;;
9424;SDS011;17139;52.140;11.636;2023-07-20T00:54:14;1.50;;;1.50;;
9424;SDS011;17139;52.140;11.636;2023-07-20T00:56:41;1.48;;;1.38;;
9424;SDS011;17139;52.140;11.636;2023-07-20T00:59:09;1.60;;;1.48;;
9424;SDS011;17139;52.140;11.636;2023-07-20T01:01:36;1.50;;;1.40;;
9424;SDS011;17139;52.140;11.636;2023-07-20T01:04:05;1.48;;;1.35;;
9424;SDS011;17139;52.140;11.636;2023-07-20T01:06:34;2.42;;;1.55;;
9424;SDS011;17139;52.140;11.636;2023-07-20T01:09:09;1.80;;;1.70;;
9424;SDS011;17139;52.140;11.636;2023-07-20T01:11:43;1.70;;;1.60;;
9424;SDS011;17139;52.140;11.636;2023-07-20T01:14:20;1.30;;;1.30;;
9424;SDS011;17139;52.140;11.636;2023-07-20T01:16:48;2.17;;;1.45;;
9424;SDS011;17139;52.140;11.636;2023-07-20T01:19:18;2.38;;;1.70;;
9424;SDS011;17139;52.140;11.636;2023-07-20T01:21:47;2.53;;;1.80;;
9424;SDS011;17139;52.140;11.636;2023-07-20T01:30:16;2.63;;;2.20;;
9424;SDS011;17139;52.140;11.636;2023-07-20T01:33:07;3.28;;;1.90;;
9424;SDS011;17139;52.140;11.636;2023-07-20T01:35:35;1.75;;;1.60;;
9424;SDS011;17139;52.140;11.636;2023-07-20T01:38:04;2.40;;;2.15;;
9424;SDS011;17139;52.140;11.636;2023-07-20T01:40:34;2.75;;;1.65;;
9424;SDS011;17139;52.140;11.636;2023-07-20T01:43:01;2.20;;;2.00;;
9424;SDS011;17139;52.140;11.636;2023-07-20T01:45:29;2.90;;;2.60;;
9424;SDS011;17139;52.140;11.636;2023-07-20T01:47:56;2.47;;;2.15;;
9424;SDS011;17139;52.140;11.636;2023-07-20T01:50:24;2.38;;;2.17;;
9424;SDS011;17139;52.140;11.636;2023-07-20T01:52:51;2.60;;;2.40;;
9424;SDS011;17139;52.140;11.636;2023-07-20T01:55:19;2.90;;;2.60;;
9424;SDS011;17139;52.140;11.636;2023-07-20T01:57:46;2.80;;;2.70;;
9424;SDS011;17139;52.140;11.636;2023-07-20T02:00:13;3.72;;;2.55;;
9424;SDS011;17139;52.140;11.636;2023-07-20T02:02:41;2.92;;;2.53;;
9424;SDS011;17139;52.140;11.636;2023-07-20T02:05:08;3.47;;;2.60;;
9424;SDS011;17139;52.140;11.636;2023-07-20T02:07:37;2.60;;;2.40;;
9424;SDS011;17139;52.140;11.636;2023-07-20T02:10:05;2.95;;;2.58;;
9424;SDS011;17139;52.140;11.636;2023-07-20T02:12:32;3.60;;;2.50;;
9424;SDS011;17139;52.140;11.636;2023-07-20T02:14:59;5.53;;;2.30;;
9424;SDS011;17139;52.140;11.636;2023-07-20T02:17:27;3.97;;;3.10;;
9424;SDS011;17139;52.140;11.636;2023-07-20T02:19:56;6.93;;;3.25;;
9424;SDS011;17139;52.140;11.636;2023-07-20T02:22:23;3.33;;;3.00;;
9424;SDS011;17139;52.140;11.636;2023-07-20T02:24:52;6.72;;;3.22;;
9424;SDS011;17139;52.140;11.636;2023-07-20T02:27:19;3.25;;;3.05;;
9424;SDS011;17139;52.140;11.636;2023-07-20T02:29:46;2.70;;;2.55;;
9424;SDS011;17139;52.140;11.636;2023-07-20T02:32:13;3.45;;;3.15;;
9424;SDS011;17139;52.140;11.636;2023-07-20T02:34:39;3.08;;;2.97;;
9424;SDS011;17139;52.140;11.636;2023-07-20T02:37:07;3.42;;;3.20;;
9424;SDS011;17139;52.140;11.636;2023-07-20T02:39:33;5.75;;;2.38;;
9424;SDS011;17139;52.140;11.636;2023-07-20T02:42:04;2.92;;;2.83;;
9424;SDS011;17139;52.140;11.636;2023-07-20T02:44:31;2.75;;;2.55;;
9424;SDS011;17139;52.140;11.636;2023-07-20T02:46:58;2.65;;;2.55;;
9424;SDS011;17139;52.140;11.636;2023-07-20T02:49:26;2.42;;;2.33;;
9424;SDS011;17139;52.140;11.636;2023-07-20T02:51:53;2.80;;;2.70;;
9424;SDS011;17139;52.140;11.636;2023-07-20T02:54:20;2.72;;;2.53;;
9424;SDS011;17139;52.140;11.636;2023-07-20T02:56:48;4.25;;;2.40;;
9424;SDS011;17139;52.140;11.636;2023-07-20T02:59:16;4.32;;;2.90;;
9424;SDS011;17139;52.140;11.636;2023-07-20T03:01:43;5.10;;;2.63;;
9424;SDS011;17139;52.140;11.636;2023-07-20T03:04:10;3.38;;;3.10;;
9424;SDS011;17139;52.140;11.636;2023-07-20T03:06:37;2.75;;;2.55;;
9424;SDS011;17139;52.140;11.636;2023-07-20T03:09:04;8.13;;;2.72;;
9424;SDS011;17139;52.140;11.636;2023-07-20T03:11:32;4.22;;;2.58;;
9424;SDS011;17139;52.140;11.636;2023-07-20T03:13:59;3.08;;;2.70;;
9424;SDS011;17139;52.140;11.636;2023-07-20T03:16:27;3.15;;;2.30;;
9424;SDS011;17139;52.140;11.636;2023-07-20T03:18:57;4.70;;;2.50;;
9424;SDS011;17139;52.140;11.636;2023-07-20T03:21:25;5.35;;;2.42;;
9424;SDS011;17139;52.140;11.636;2023-07-20T03:23:52;3.03;;;2.80;;
9424;SDS011;17139;52.140;11.636;2023-07-20T03:26:19;5.65;;;2.72;;
9424;SDS011;17139;52.140;11.636;2023-07-20T03:28:46;4.97;;;2.50;;
9424;SDS011;17139;52.140;11.636;2023-07-20T03:31:13;4.55;;;2.45;;
9424;SDS011;17139;52.140;11.636;2023-07-20T03:33:43;2.45;;;2.30;;
9424;SDS011;17139;52.140;11.636;2023-07-20T03:36:10;4.28;;;2.42;;
9424;SDS011;17139;52.140;11.636;2023-07-20T03:38:37;2.65;;;2.45;;
9424;SDS011;17139;52.140;11.636;2023-07-20T03:41:04;10.40;;;2.60;;
9424;SDS011;17139;52.140;11.636;2023-07-20T03:43:31;2.45;;;2.25;;
9424;SDS011;17139;52.140;11.636;2023-07-20T03:45:58;2.47;;;2.38;;
9424;SDS011;17139;52.140;11.636;2023-07-20T03:48:25;2.25;;;2.08;;
9424;SDS011;17139;52.140;11.636;2023-07-20T03:50:54;4.50;;;2.43;;
9424;SDS011;17139;52.140;11.636;2023-07-20T03:53:21;4.32;;;2.33;;
9424;SDS011;17139;52.140;11.636;2023-07-20T03:55:48;6.18;;;2.30;;
9424;SDS011;17139;52.140;11.636;2023-07-20T03:58:16;4.13;;;2.25;;
9424;SDS011;17139;52.140;11.636;2023-07-20T04:00:44;2.38;;;2.17;;
9424;SDS011;17139;52.140;11.636;2023-07-20T04:03:12;4.40;;;2.35;;
9424;SDS011;17139;52.140;11.636;2023-07-20T04:05:39;2.35;;;2.05;;
9424;SDS011;17139;52.140;11.636;2023-07-20T04:08:07;5.25;;;2.10;;
9424;SDS011;17139;52.140;11.636;2023-07-20T04:10:34;2.75;;;2.53;;
9424;SDS011;17139;52.140;11.636;2023-07-20T04:13:01;2.45;;;2.25;;
9424;SDS011;17139;52.140;11.636;2023-07-20T04:15:28;2.22;;;2.00;;
9424;SDS011;17139;52.140;11.636;2023-07-20T04:17:55;4.68;;;2.55;;
9424;SDS011;17139;52.140;11.636;2023-07-20T04:20:23;3.67;;;2.42;;
9424;SDS011;17139;52.140;11.636;2023-07-20T04:22:50;5.55;;;2.72;;
9424;SDS011;17139;52.140;11.636;2023-07-20T04:25:18;2.65;;;2.50;;
9424;SDS011;17139;52.140;11.636;2023-07-20T04:27:45;2.38;;;2.28;;
9424;SDS011;17139;52.140;11.636;2023-07-20T04:30:12;5.03;;;2.55;;
9424;SDS011;17139;52.140;11.636;2023-07-20T04:32:40;2.97;;;2.78;;
9424;SDS011;17139;52.140;11.636;2023-07-20T04:35:09;3.15;;;2.60;;
9424;SDS011;17139;52.140;11.636;2023-07-20T04:37:36;3.65;;;2.28;;
9424;SDS011;17139;52.140;11.636;2023-07-20T04:40:03;3.45;;;2.97;;
9424;SDS011;17139;52.140;11.636;2023-07-20T04:42:34;7.50;;;2.67;;
9424;SDS011;17139;52.140;11.636;2023-07-20T04:45:01;2.65;;;2.08;;
9424;SDS011;17139;52.140;11.636;2023-07-20T04:47:28;3.42;;;2.67;;
9424;SDS011;17139;52.140;11.636;2023-07-20T04:49:55;2.70;;;2.50;;
9424;SDS011;17139;52.140;11.636;2023-07-20T04:52:22;3.60;;;2.00;;
9424;SDS011;17139;52.140;11.636;2023-07-20T04:54:49;2.97;;;2.13;;
9424;SDS011;17139;52.140;11.636;2023-07-20T04:57:16;1.65;;;1.60;;
9424;SDS011;17139;52.140;11.636;2023-07-20T04:59:45;1.75;;;1.65;;
9424;SDS011;17139;52.140;11.636;2023-07-20T05:02:12;2.58;;;2.13;;
9424;SDS011;17139;52.140;11.636;2023-07-20T05:04:39;2.35;;;2.25;;
9424;SDS011;17139;52.140;11.636;2023-07-20T05:07:06;1.90;;;1.80;;
9424;SDS011;17139;52.140;11.636;2023-07-20T05:09:33;1.97;;;1.87;;
9424;SDS011;17139;52.140;11.636;2023-07-20T05:12:00;4.25;;;1.75;;
9424;SDS011;17139;52.140;11.636;2023-07-20T05:14:27;1.83;;;1.73;;
9424;SDS011;17139;52.140;11.636;2023-07-20T05:16:55;2.28;;;1.63;;
9424;SDS011;17139;52.140;11.636;2023-07-20T05:19:22;1.88;;;1.77;;
9424;SDS011;17139;52.140;11.636;2023-07-20T05:21:51;1.33;;;1.10;;
9424;SDS011;17139;52.140;11.636;2023-07-20T05:24:18;1.43;;;1.40;;
9424;SDS011;17139;52.140;11.636;2023-07-20T05:26:45;2.78;;;1.70;;
9424;SDS011;17139;52.140;11.636;2023-07-20T05:29:12;1.05;;;1.05;;
9424;SDS011;17139;52.140;11.636;2023-07-20T05:31:39;1.17;;;1.17;;
9424;SDS011;17139;52.140;11.636;2023-07-20T05:34:07;1.10;;;1.10;;
9424;SDS011;17139;52.140;11.636;2023-07-20T05:36:34;1.20;;;1.20;;
9424;SDS011;17139;52.140;11.636;2023-07-20T05:39:01;1.10;;;1.10;;
9424;SDS011;17139;52.140;11.636;2023-07-20T05:41:29;0.82;;;0.82;;
9424;SDS011;17139;52.140;11.636;2023-07-20T05:43:56;1.00;;;1.00;;
9424;SDS011;17139;52.140;11.636;2023-07-20T05:46:23;1.13;;;0.90;;
9424;SDS011;17139;52.140;11.636;2023-07-20T05:48:50;0.90;;;0.90;;
9424;SDS011;17139;52.140;11.636;2023-07-20T05:51:19;1.02;;;1.02;;
9424;SDS011;17139;52.140;11.636;2023-07-20T05:53:45;0.85;;;0.82;;
9424;SDS011;17139;52.140;11.636;2023-07-20T05:56:13;0.80;;;0.80;;
9424;SDS011;17139;52.140;11.636;2023-07-20T05:58:40;1.55;;;0.88;;
9424;SDS011;17139;52.140;11.636;2023-07-20T06:01:07;2.53;;;0.85;;
9424;SDS011;17139;52.140;11.636;2023-07-20T06:03:34;0.90;;;0.90;;
9424;SDS011;17139;52.140;11.636;2023-07-20T06:06:02;1.45;;;1.35;;
9424;SDS011;17139;52.140;11.636;2023-07-20T06:08:32;1.08;;;1.00;;
9424;SDS011;17139;52.140;11.636;2023-07-20T06:10:59;1.13;;;0.90;;
9424;SDS011;17139;52.140;11.636;2023-07-20T06:13:26;1.00;;;1.00;;
9424;SDS011;17139;52.140;11.636;2023-07-20T06:15:53;1.15;;;1.15;;
9424;SDS011;17139;52.140;11.636;2023-07-20T06:18:20;0.80;;;0.80;;
9424;SDS011;17139;52.140;11.636;2023-07-20T06:20:48;0.90;;;0.90;;
9424;SDS011;17139;52.140;11.636;2023-07-20T06:23:16;1.00;;;1.00;;
9424;SDS011;17139;52.140;11.636;2023-07-20T06:25:46;1.00;;;1.00;;
9424;SDS011;17139;52.140;11.636;2023-07-20T06:28:13;1.10;;;1.10;;
9424;SDS011;17139;52.140;11.636;2023-07-20T06:30:41;0.90;;;0.90;;
9424;SDS011;17139;52.140;11.636;2023-07-20T06:33:08;0.95;;;0.95;;
9424;SDS011;17139;52.140;11.636;2023-07-20T06:35:35;1.10;;;1.10;;
9424;SDS011;17139;52.140;11.636;2023-07-20T06:38:02;0.80;;;0.80;;
9424;SDS011;17139;52.140;11.636;2023-07-20T06:40:29;2.58;;;1.40;;
9424;SDS011;17139;52.140;11.636;2023-07-20T06:42:57;1.27;;;1.10;;
9424;SDS011;17139;52.140;11.636;2023-07-20T06:45:24;1.30;;;1.30;;
9424;SDS011;17139;52.140;11.636;2023-07-20T06:47:51;1.10;;;1.10;;
9424;SDS011;17139;52.140;11.636;2023-07-20T06:50:18;1.40;;;1.30;;
9424;SDS011;17139;52.140;11.636;2023-07-20T06:52:45;1.10;;;0.93;;
9424;SDS011;17139;52.140;11.636;2023-07-20T06:55:13;0.80;;;0.80;;
9424;SDS011;17139;52.140;11.636;2023-07-20T06:57:40;1.00;;;1.00;;
9424;SDS011;17139;52.140;11.636;2023-07-20T07:00:09;0.90;;;0.90;;
9424;SDS011;17139;52.140;11.636;2023-07-20T07:02:37;3.13;;;1.13;;
9424;SDS011;17139;52.140;11.636;2023-07-20T07:05:04;1.02;;;0.98;;
9424;SDS011;17139;52.140;11.636;2023-07-20T07:07:32;0.80;;;0.80;;
9424;SDS011;17139;52.140;11.636;2023-07-20T07:09:59;1.27;;;1.00;;
9424;SDS011;17139;52.140;11.636;2023-07-20T07:12:28;1.10;;;1.00;;
9424;SDS011;17139;52.140;11.636;2023-07-20T07:14:55;1.30;;;0.90;;
9424;SDS011;17139;52.140;11.636;2023-07-20T07:17:24;1.00;;;0.77;;
9424;SDS011;17139;52.140;11.636;2023-07-20T07:19:51;0.90;;;0.90;;
9424;SDS011;17139;52.140;11.636;2023-07-20T07:22:19;0.90;;;0.90;;
9424;SDS011;17139;52.140;11.636;2023-07-20T07:24:47;0.80;;;0.80;;
9424;SDS011;17139;52.140;11.636;2023-07-20T07:27:15;0.60;;;0.60;;
9424;SDS011;17139;52.140;11.636;2023-07-20T07:29:42;0.68;;;0.68;;
9424;SDS011;17139;52.140;11.636;2023-07-20T07:32:09;11.38;;;1.52;;
9424;SDS011;17139;52.140;11.636;2023-07-20T07:34:38;0.90;;;0.77;;
9424;SDS011;17139;52.140;11.636;2023-07-20T07:37:05;0.90;;;0.90;;
9424;SDS011;17139;52.140;11.636;2023-07-20T07:39:32;0.70;;;0.70;;
9424;SDS011;17139;52.140;11.636;2023-07-20T07:41:59;1.00;;;0.80;;
9424;SDS011;17139;52.140;11.636;2023-07-20T07:44:26;0.80;;;0.80;;
9424;SDS011;17139;52.140;11.636;2023-07-20T07:46:53;1.65;;;0.95;;
9424;SDS011;17139;52.140;11.636;2023-07-20T07:49:20;0.90;;;0.90;;
9424;SDS011;17139;52.140;11.636;2023-07-20T07:51:50;0.93;;;0.93;;
9424;SDS011;17139;52.140;11.636;2023-07-20T07:54:17;0.88;;;0.88;;
9424;SDS011;17139;52.140;11.636;2023-07-20T07:56:44;0.75;;;0.75;;
9424;SDS011;17139;52.140;11.636;2023-07-20T07:59:11;0.80;;;0.80;;
9424;SDS011;17139;52.140;11.636;2023-07-20T08:01:38;0.57;;;0.57;;
9424;SDS011;17139;52.140;11.636;2023-07-20T08:04:05;0.68;;;0.52;;
9424;SDS011;17139;52.140;11.636;2023-07-20T08:06:32;1.08;;;0.80;;
9424;SDS011;17139;52.140;11.636;2023-07-20T08:09:00;0.82;;;0.60;;
9424;SDS011;17139;52.140;11.636;2023-07-20T08:11:33;0.60;;;0.60;;
9424;SDS011;17139;52.140;11.636;2023-07-20T08:14:00;0.77;;;0.77;;
9424;SDS011;17139;52.140;11.636;2023-07-20T08:16:27;0.77;;;0.70;;
9424;SDS011;17139;52.140;11.636;2023-07-20T08:18:54;0.82;;;0.82;;
9424;SDS011;17139;52.140;11.636;2023-07-20T08:21:21;1.45;;;0.77;;
9424;SDS011;17139;52.140;11.636;2023-07-20T08:23:48;1.23;;;0.88;;
9424;SDS011;17139;52.140;11.636;2023-07-20T08:26:17;0.63;;;0.63;;
9424;SDS011;17139;52.140;11.636;2023-07-20T08:28:47;0.80;;;0.80;;
9424;SDS011;17139;52.140;11.636;2023-07-20T08:31:14;1.17;;;1.17;;
9424;SDS011;17139;52.140;11.636;2023-07-20T08:33:41;0.80;;;0.80;;
9424;SDS011;17139;52.140;11.636;2023-07-20T08:36:08;0.95;;;0.73;;
9424;SDS011;17139;52.140;11.636;2023-07-20T08:38:36;0.70;;;0.70;;
9424;SDS011;17139;52.140;11.636;2023-07-20T08:41:03;0.70;;;0.70;;
9424;SDS011;17139;52.140;11.636;2023-07-20T08:43:31;0.70;;;0.70;;
9424;SDS011;17139;52.140;11.636;2023-07-20T08:46:00;1.25;;;1.13;;
9424;SDS011;17139;52.140;11.636;2023-07-20T08:48:27;0.70;;;0.70;;
9424;SDS011;17139;52.140;11.636;2023-07-20T08:50:56;1.10;;;1.10;;
9424;SDS011;17139;52.140;11.636;2023-07-20T08:53:25;2.17;;;0.63;;
9424;SDS011;17139;52.140;11.636;2023-07-20T08:55:54;1.20;;;0.68;;
9424;SDS011;17139;52.140;11.636;2023-07-20T08:58:21;2.47;;;0.70;;
9424;SDS011;17139;52.140;11.636;2023-07-20T09:00:53;0.70;;;0.70;;
9424;SDS011;17139;52.140;11.636;2023-07-20T09:03:21;1.10;;;1.10;;
9424;SDS011;17139;52.140;11.636;2023-07-20T09:05:48;0.80;;;0.80;;
9424;SDS011;17139;52.140;11.636;2023-07-20T09:08:15;0.95;;;0.93;;
9424;SDS011;17139;52.140;11.636;2023-07-20T09:10:42;1.00;;;1.00;;
9424;SDS011;17139;52.140;11.636;2023-07-20T09:13:09;2.78;;;1.13;;
9424;SDS011;17139;52.140;11.636;2023-07-20T09:15:45;1.27;;;1.27;;
9424;SDS011;17139;52.140;11.636;2023-07-20T09:18:14;1.45;;;1.35;;
9424;SDS011;17139;52.140;11.636;2023-07-20T09:20:50;1.60;;;1.60;;
9424;SDS011;17139;52.140;11.636;2023-07-20T09:23:17;1.30;;;1.30;;
9424;SDS011;17139;52.140;11.636;2023-07-20T09:25:44;1.50;;;1.50;;
9424;SDS011;17139;52.140;11.636;2023-07-20T09:28:16;2.60;;;1.67;;
9424;SDS011;17139;52.140;11.636;2023-07-20T09:30:43;2.63;;;2.20;;
9424;SDS011;17139;52.140;11.636;2023-07-20T09:33:19;2.30;;;2.20;;
9424;SDS011;17139;52.140;11.636;2023-07-20T09:35:48;2.08;;;1.90;;
9424;SDS011;17139;52.140;11.636;2023-07-20T09:38:15;1.77;;;1.77;;
9424;SDS011;17139;52.140;11.636;2023-07-20T09:40:42;2.28;;;1.52;;
9424;SDS011;17139;52.140;11.636;2023-07-20T09:43:10;1.65;;;1.10;;
9424;SDS011;17139;52.140;11.636;2023-07-20T09:45:39;1.00;;;1.00;;
9424;SDS011;17139;52.140;11.636;2023-07-20T09:48:07;0.90;;;0.90;;
9424;SDS011;17139;52.140;11.636;2023-07-20T09:50:40;0.90;;;0.90;;
9424;SDS011;17139;52.140;11.636;2023-07-20T09:53:09;0.85;;;0.85;;
9424;SDS011;17139;52.140;11.636;2023-07-20T09:55:39;0.80;;;0.80;;
9424;SDS011;17139;52.140;11.636;2023-07-20T09:58:07;1.23;;;0.80;;
9424;SDS011;17139;52.140;11.636;2023-07-20T10:00:36;0.70;;;0.70;;
9424;SDS011;17139;52.140;11.636;2023-07-20T10:03:04;0.60;;;0.60;;
9424;SDS011;17139;52.140;11.636;2023-07-20T10:05:32;1.40;;;0.60;;
9424;SDS011;17139;52.140;11.636;2023-07-20T10:08:03;0.70;;;0.70;;
9424;SDS011;17139;52.140;11.636;2023-07-20T10:10:31;0.80;;;0.65;;
9424;SDS011;17139;52.140;11.636;2023-07-20T10:13:00;0.80;;;0.80;;
9424;SDS011;17139;52.140;11.636;2023-07-20T10:15:29;0.57;;;0.57;;
9424;SDS011;17139;52.140;11.636;2023-07-20T10:18:02;0.60;;;0.60;;
9424;SDS011;17139;52.140;11.636;2023-07-20T10:20:35;0.50;;;0.50;;
9424;SDS011;17139;52.140;11.636;2023-07-20T10:23:06;0.70;;;0.70;;
9424;SDS011;17139;52.140;11.636;2023-07-20T10:25:34;0.40;;;0.40;;
9424;SDS011;17139;52.140;11.636;2023-07-20T10:28:03;0.60;;;0.60;;
9424;SDS011;17139;52.140;11.636;2023-07-20T10:30:32;0.50;;;0.50;;
9424;SDS011;17139;52.140;11.636;2023-07-20T10:33:00;0.35;;;0.35;;
9424;SDS011;17139;52.140;11.636;2023-07-20T10:35:28;0.43;;;0.43;;
9424;SDS011;17139;52.140;11.636;2023-07-20T10:37:59;0.50;;;0.50;;
9424;SDS011;17139;52.140;11.636;2023-07-20T10:40:32;0.60;;;0.60;;
9424;SDS011;17139;52.140;11.636;2023-07-20T10:43:01;2.17;;;0.50;;
9424;SDS011;17139;52.140;11.636;2023-07-20T10:45:36;1.80;;;0.60;;
9424;SDS011;17139;52.140;11.636;2023-07-20T10:48:16;0.55;;;0.55;;
9424;SDS011;17139;52.140;11.636;2023-07-20T10:50:45;1.85;;;0.50;;
9424;SDS011;17139;52.140;11.636;2023-07-20T10:53:13;0.60;;;0.60;;
9424;SDS011;17139;52.140;11.636;2023-07-20T10:55:42;0.52;;;0.52;;
9424;SDS011;17139;52.140;11.636;2023-07-20T10:58:11;0.60;;;0.60;;
9424;SDS011;17139;52.140;11.636;2023-07-20T11:01:00;2.38;;;0.70;;
9424;SDS011;17139;52.140;11.636;2023-07-20T11:03:28;0.70;;;0.70;;
9424;SDS011;17139;52.140;11.636;2023-07-20T11:05:56;0.45;;;0.45;;
9424;SDS011;17139;52.140;11.636;2023-07-20T11:08:37;0.50;;;0.50;;
9424;SDS011;17139;52.140;11.636;2023-07-20T11:11:23;0.43;;;0.43;;
9424;SDS011;17139;52.140;11.636;2023-07-20T11:13:55;0.47;;;0.47;;
9424;SDS011;17139;52.140;11.636;2023-07-20T11:16:33;0.55;;;0.55;;
9424;SDS011;17139;52.140;11.636;2023-07-20T11:19:01;1.17;;;0.57;;
9424;SDS011;17139;52.140;11.636;2023-07-20T11:21:28;0.98;;;0.52;;
9424;SDS011;17139;52.140;11.636;2023-07-20T11:23:57;0.40;;;0.40;;
9424;SDS011;17139;52.140;11.636;2023-07-20T11:26:25;0.60;;;0.60;;
9424;SDS011;17139;52.140;11.636;2023-07-20T11:28:52;0.40;;;0.40;;
9424;SDS011;17139;52.140;11.636;2023-07-20T11:31:19;0.90;;;0.52;;
9424;SDS011;17139;52.140;11.636;2023-07-20T11:33:46;0.50;;;0.50;;
9424;SDS011;17139;52.140;11.636;2023-07-20T11:36:13;4.07;;;0.73;;
9424;SDS011;17139;52.140;11.636;2023-07-20T11:38:41;0.50;;;0.50;;
9424;SDS011;17139;52.140;11.636;2023-07-20T11:41:09;0.45;;;0.45;;
9424;SDS011;17139;52.140;11.636;2023-07-20T11:43:37;0.50;;;0.50;;
9424;SDS011;17139;52.140;11.636;2023-07-20T11:46:05;0.68;;;0.68;;
9424;SDS011;17139;52.140;11.636;2023-07-20T11:48:32;0.50;;;0.50;;
9424;SDS011;17139;52.140;11.636;2023-07-20T11:50:59;0.68;;;0.68;;
9424;SDS011;17139;52.140;11.636;2023-07-20T11:53:26;0.77;;;0.77;;
9424;SDS011;17139;52.140;11.636;2023-07-20T11:55:53;1.20;;;0.73;;
9424;SDS011;17139;52.140;11.636;2023-07-20T11:58:21;3.55;;;0.63;;
9424;SDS011;17139;52.140;11.636;2023-07-20T12:00:49;0.60;;;0.60;;
9424;SDS011;17139;52.140;11.636;2023-07-20T12:03:16;0.50;;;0.50;;
9424;SDS011;17139;52.140;11.636;2023-07-20T12:05:44;0.65;;;0.65;;
9424;SDS011;17139;52.140;11.636;2023-07-20T12:08:12;0.52;;;0.52;;
9424;SDS011;17139;52.140;11.636;2023-07-20T12:10:39;0.50;;;0.50;;
9424;SDS011;17139;52.140;11.636;2023-07-20T12:13:09;0.50;;;0.50;;
9424;SDS011;17139;52.140;11.636;2023-07-20T12:15:37;0.50;;;0.50;;
9424;SDS011;17139;52.140;11.636;2023-07-20T12:18:05;0.70;;;0.70;;
9424;SDS011;17139;52.140;11.636;2023-07-20T12:20:33;0.50;;;0.50;;
9424;SDS011;17139;52.140;11.636;2023-07-20T12:23:02;0.60;;;0.60;;
9424;SDS011;17139;52.140;11.636;2023-07-20T12:25:36;0.55;;;0.55;;
9424;SDS011;17139;52.140;11.636;2023-07-20T12:28:04;2.10;;;0.93;;
9424;SDS011;17139;52.140;11.636;2023-07-20T12:30:32;0.60;;;0.60;;
9424;SDS011;17139;52.140;11.636;2023-07-20T12:32:59;0.60;;;0.60;;
9424;SDS011;17139;52.140;11.636;2023-07-20T12:35:29;0.60;;;0.60;;
9424;SDS011;17139;52.140;11.636;2023-07-20T12:37:56;0.60;;;0.60;;
9424;SDS011;17139;52.140;11.636;2023-07-20T12:40:23;0.45;;;0.45;;
9424;SDS011;17139;52.140;11.636;2023-07-20T12:42:50;0.60;;;0.60;;
9424;SDS011;17139;52.140;11.636;2023-07-20T12:45:18;0.68;;;0.68;;
9424;SDS011;17139;52.140;11.636;2023-07-20T12:47:45;1.05;;;0.57;;
9424;SDS011;17139;52.140;11.636;2023-07-20T12:50:13;0.60;;;0.60;;
9424;SDS011;17139;52.140;11.636;2023-07-20T12:52:41;0.80;;;0.80;;
9424;SDS011;17139;52.140;11.636;2023-07-20T12:55:09;0.70;;;0.70;;
9424;SDS011;17139;52.140;11.636;2023-07-20T12:57:37;0.65;;;0.65;;
9424;SDS011;17139;52.140;11.636;2023-07-20T13:00:05;0.70;;;0.70;;
9424;SDS011;17139;52.140;11.636;2023-07-20T13:02:34;2.65;;;0.50;;
9424;SDS011;17139;52.140;11.636;2023-07-20T13:05:01;0.85;;;0.60;;
9424;SDS011;17139;52.140;11.636;2023-07-20T13:07:29;1.48;;;0.75;;
9424;SDS011;17139;52.140;11.636;2023-07-20T13:09:58;0.57;;;0.57;;
9424;SDS011;17139;52.140;11.636;2023-07-20T13:12:26;0.70;;;0.70;;
9424;SDS011;17139;52.140;11.636;2023-07-20T13:14:54;0.60;;;0.60;;
9424;SDS011;17139;52.140;11.636;2023-07-20T13:17:21;0.73;;;0.63;;
9424;SDS011;17139;52.140;11.636;2023-07-20T13:19:49;0.77;;;0.68;;
9424;SDS011;17139;52.140;11.636;2023-07-20T13:22:16;1.17;;;0.60;;
9424;SDS011;17139;52.140;11.636;2023-07-20T13:24:44;0.57;;;0.57;;
9424;SDS011;17139;52.140;11.636;2023-07-20T13:27:15;0.70;;;0.60;;
9424;SDS011;17139;52.140;11.636;2023-07-20T13:29:43;0.70;;;0.70;;
9424;SDS011;17139;52.140;11.636;2023-07-20T13:32:12;0.68;;;0.68;;
9424;SDS011;17139;52.140;11.636;2023-07-20T13:34:40;0.70;;;0.70;;
9424;SDS011;17139;52.140;11.636;2023-07-20T13:37:08;1.38;;;0.70;;
9424;SDS011;17139;52.140;11.636;2023-07-20T13:39:35;0.88;;;0.88;;
9424;SDS011;17139;52.140;11.636;2023-07-20T13:42:02;0.60;;;0.60;;
9424;SDS011;17139;52.140;11.636;2023-07-20T13:44:31;1.65;;;0.80;;
9424;SDS011;17139;52.140;11.636;2023-07-20T13:46:59;0.60;;;0.60;;
9424;SDS011;17139;52.140;11.636;2023-07-20T13:49:26;0.80;;;0.80;;
9424;SDS011;17139;52.140;11.636;2023-07-20T13:51:54;0.80;;;0.80;;
9424;SDS011;17139;52.140;11.636;2023-07-20T13:54:22;0.70;;;0.70;;
9424;SDS011;17139;52.140;11.636;2023-07-20T13:56:49;0.60;;;0.60;;
9424;SDS011;17139;52.140;11.636;2023-07-20T13:59:16;0.68;;;0.68;;
9424;SDS011;17139;52.140;11.636;2023-07-20T14:01:45;0.60;;;0.60;;
9424;SDS011;17139;52.140;11.636;2023-07-20T14:04:12;0.65;;;0.65;;
9424;SDS011;17139;52.140;11.636;2023-07-20T14:06:39;0.70;;;0.70;;
9424;SDS011;17139;52.140;11.636;2023-07-20T14:09:07;0.70;;;0.70;;
9424;SDS011;17139;52.140;11.636;2023-07-20T14:11:34;1.45;;;0.88;;
9424;SDS011;17139;52.140;11.636;2023-07-20T14:14:01;0.73;;;0.73;;
9424;SDS011;17139;52.140;11.636;2023-07-20T14:16:28;0.60;;;0.60;;
9424;SDS011;17139;52.140;11.636;2023-07-20T14:18:58;0.75;;;0.75;;
9424;SDS011;17139;52.140;11.636;2023-07-20T14:21:25;1.77;;;0.75;;
9424;SDS011;17139;52.140;11.636;2023-07-20T14:23:53;0.80;;;0.80;;
9424;SDS011;17139;52.140;11.636;2023-07-20T14:26:20;1.33;;;1.33;;
9424;SDS011;17139;52.140;11.636;2023-07-20T14:28:47;0.80;;;0.80;;
9424;SDS011;17139;52.140;11.636;2023-07-20T14:31:14;1.55;;;0.68;;
9424;SDS011;17139;52.140;11.636;2023-07-20T14:33:41;0.77;;;0.77;;
9424;SDS011;17139;52.140;11.636;2023-07-20T14:36:10;1.92;;;0.90;;
9424;SDS011;17139;52.140;11.636;2023-07-20T14:38:37;1.65;;;1.35;;
9424;SDS011;17139;52.140;11.636;2023-07-20T14:41:05;2.97;;;1.10;;
9424;SDS011;17139;52.140;11.636;2023-07-20T14:43:32;1.58;;;0.80;;
9424;SDS011;17139;52.140;11.636;2023-07-20T14:45:59;0.50;;;0.50;;
9424;SDS011;17139;52.140;11.636;2023-07-20T14:48:26;0.88;;;0.88;;
9424;SDS011;17139;52.140;11.636;2023-07-20T14:50:53;1.85;;;0.70;;
9424;SDS011;17139;52.140;11.636;2023-07-20T14:53:22;0.70;;;0.70;;
9424;SDS011;17139;52.140;11.636;2023-07-20T14:55:49;1.50;;;0.70;;
9424;SDS011;17139;52.140;11.636;2023-07-20T14:58:16;0.80;;;0.80;;